Time;durP1;ratioP1;P1;durP2;ratioP2;P2;SDS_P1;SDS_P2;PMS_P1;PMS_P2;Temp;Humidity;BMP_temperature;BMP_pressure;BME280_temperature;BME280_humidity;BME280_pressure;Samples;Min_cycle;Max_cycle;Signal;HPM_P1;HPM_P2
2022/01/25 00:28:24;;;;;;;118.68;53.88;;;-2.20;99.90;;;;;;5055634;28;20119;-75
2022/01/25 00:33:26;;;;;;;124.78;56.03;;;-2.20;99.90;;;;;;5055711;28;20032;-75
2022/01/25 00:35:51;;;;;;;113.00;56.03;;;-2.20;99.90;;;;;;5053859;28;20021;-75
2022/01/25 00:38:17;;;;;;;125.43;58.47;;;-2.20;99.90;;;;;;5055191;28;20029;-75
2022/01/25 00:40:43;;;;;;;118.22;54.22;;;-2.20;99.90;;;;;;5053934;28;20029;-76
2022/01/25 00:43:08;;;;;;;157.80;67.43;;;-2.20;99.90;;;;;;5055075;28;20059;-75
2022/01/25 00:45:34;;;;;;;119.00;53.20;;;-2.20;99.90;;;;;;5055168;28;20025;-75
2022/01/25 00:48:02;;;;;;;119.15;54.78;;;-2.10;99.90;;;;;;5054956;28;20467;-75
2022/01/25 00:50:36;;;;;;;110.63;50.47;;;-2.20;99.90;;;;;;5055035;28;20104;-75
2022/01/25 00:55:27;;;;;;;125.97;52.50;;;-2.10;99.90;;;;;;5055394;28;20029;-75
2022/01/25 00:57:53;;;;;;;110.10;50.72;;;-2.10;99.90;;;;;;5049500;28;20033;-76
2022/01/25 01:00:19;;;;;;;116.07;52.67;;;-2.10;99.90;;;;;;5053585;28;20037;-75
2022/01/25 01:02:44;;;;;;;122.00;51.40;;;-2.10;99.90;;;;;;5054198;28;20103;-75
2022/01/25 01:05:10;;;;;;;150.80;62.15;;;-2.10;99.90;;;;;;5054833;28;20075;-75
2022/01/25 01:07:36;;;;;;;124.80;55.42;;;-2.10;99.90;;;;;;5053180;28;20025;-75
2022/01/25 01:10:03;;;;;;;128.35;54.65;;;-2.10;99.90;;;;;;5054856;28;20024;-76
2022/01/25 01:15:28;;;;;;;130.98;56.53;;;-2.00;99.90;;;;;;5054990;28;20029;-76
2022/01/25 01:29:19;;;;;;;113.82;51.13;;;-2.00;99.90;;;;;;5057617;28;20082;-76
2022/01/25 01:34:58;;;;;;;174.98;69.10;;;-2.00;99.90;;;;;;5054203;28;20036;-76
2022/01/25 01:45:40;;;;;;;162.98;66.20;;;-2.00;99.90;;;;;;5053876;28;20036;-76
2022/01/25 01:48:03;;;;;;;135.35;57.22;;;-2.00;99.90;;;;;;5050725;28;20520;-76
2022/01/25 01:50:33;;;;;;;154.18;66.28;;;-2.00;99.90;;;;;;5049019;28;20032;-75
2022/01/25 01:53:00;;;;;;;143.88;64.30;;;-2.00;99.90;;;;;;5044152;28;20438;-75
2022/01/25 01:55:27;;;;;;;140.73;61.17;;;-1.90;99.90;;;;;;5053861;28;20100;-75
2022/01/25 01:57:54;;;;;;;153.63;62.40;;;-1.90;99.90;;;;;;5053538;28;20032;-75
2022/01/25 02:00:23;;;;;;;153.82;60.08;;;-1.90;99.90;;;;;;5053399;28;20127;-75
2022/01/25 02:02:49;;;;;;;135.05;57.92;;;-1.90;99.90;;;;;;5052854;28;20025;-75
2022/01/25 02:05:15;;;;;;;139.80;55.78;;;-1.80;99.90;;;;;;5050477;28;20029;-76
2022/01/25 02:07:40;;;;;;;135.25;54.70;;;-1.80;99.90;;;;;;5053411;28;20036;-76
2022/01/25 02:10:07;;;;;;;146.45;54.78;;;-1.80;99.90;;;;;;5051725;28;20597;-76
2022/01/25 02:12:33;;;;;;;159.27;67.88;;;-1.80;99.90;;;;;;5056840;28;20118;-76
2022/01/25 02:15:02;;;;;;;182.23;72.43;;;-1.80;99.90;;;;;;5063991;28;20048;-75
2022/01/25 02:23:22;;;;;;;133.00;55.08;;;-1.80;99.90;;;;;;5055812;28;20537;-75
2022/01/25 02:25:49;;;;;;;130.70;53.53;;;-1.80;99.90;;;;;;5052006;28;20386;-76
2022/01/25 02:28:16;;;;;;;130.65;54.97;;;-1.70;99.90;;;;;;5053167;28;20032;-76
2022/01/25 02:30:43;;;;;;;155.85;64.82;;;-1.70;99.90;;;;;;5052975;28;20569;-76
2022/01/25 02:33:09;;;;;;;212.77;90.55;;;-1.70;99.90;;;;;;5049360;28;20032;-75
2022/01/25 02:35:35;;;;;;;155.52;62.97;;;-1.70;99.90;;;;;;5049362;28;20017;-76
2022/01/25 02:38:00;;;;;;;166.75;67.80;;;-1.70;99.90;;;;;;5053013;28;20114;-75
2022/01/25 02:40:26;;;;;;;145.88;56.17;;;-1.70;99.90;;;;;;5052920;28;20037;-76
2022/01/25 02:42:52;;;;;;;141.48;56.95;;;-1.70;99.90;;;;;;5052905;28;20182;-76
2022/01/25 02:45:18;;;;;;;141.27;57.88;;;-1.70;99.90;;;;;;5051628;28;20025;-76
2022/01/25 02:50:29;;;;;;;138.55;58.75;;;-1.60;99.90;;;;;;5053076;28;20036;-75
2022/01/25 02:52:55;;;;;;;169.75;75.05;;;-1.60;99.90;;;;;;5052778;28;20528;-75
2022/01/25 02:55:21;;;;;;;203.38;75.40;;;-1.60;99.90;;;;;;5051530;28;20032;-76
2022/01/25 02:57:48;;;;;;;162.88;63.35;;;-1.60;99.90;;;;;;5051314;28;20033;-76
2022/01/25 03:00:15;;;;;;;139.82;55.88;;;-1.60;99.90;;;;;;5052535;28;20048;-76
2022/01/25 03:02:40;;;;;;;147.18;64.60;;;-1.60;99.90;;;;;;5051499;28;20132;-75
2022/01/25 03:05:06;;;;;;;153.13;53.65;;;-1.60;99.90;;;;;;5052659;28;20478;-76
2022/01/25 03:07:33;;;;;;;172.90;66.25;;;-1.60;99.90;;;;;;5052607;28;20035;-76
2022/01/25 03:10:00;;;;;;;185.52;71.82;;;-1.60;99.90;;;;;;5056199;28;20013;-76
2022/01/25 03:12:50;;;;;;;167.75;64.32;;;-1.60;99.90;;;;;;5058860;28;20398;-76
2022/01/25 03:18:07;;;;;;;158.85;55.88;;;-1.50;99.90;;;;;;5058493;28;20401;-76
2022/01/25 03:20:51;;;;;;;150.07;59.28;;;-1.50;99.90;;;;;;5051895;28;20040;-76
2022/01/25 03:23:21;;;;;;;145.13;57.95;;;-1.60;99.90;;;;;;5048988;28;20557;-76
2022/01/25 03:25:49;;;;;;;154.98;57.50;;;-1.50;99.90;;;;;;5049813;28;20025;-76
2022/01/25 03:28:16;;;;;;;151.50;54.80;;;-1.50;99.90;;;;;;5056364;28;20472;-76
2022/01/25 03:30:44;;;;;;;151.05;55.75;;;-1.50;99.90;;;;;;5062611;28;20422;-75
2022/01/25 03:33:10;;;;;;;147.73;54.80;;;-1.50;99.90;;;;;;5058518;28;20103;-76
2022/01/25 03:35:36;;;;;;;179.32;65.20;;;-1.50;99.90;;;;;;5056394;28;20075;-76
2022/01/25 03:38:02;;;;;;;215.13;84.60;;;-1.50;99.90;;;;;;5052820;28;20474;-76
2022/01/25 03:40:27;;;;;;;215.80;74.43;;;-1.50;99.90;;;;;;5051108;28;20041;-76
2022/01/25 03:42:54;;;;;;;146.82;56.95;;;-1.50;99.90;;;;;;5052795;28;20037;-76
2022/01/25 03:45:25;;;;;;;171.65;60.15;;;-1.50;99.90;;;;;;5054313;28;20064;-76
2022/01/25 03:49:49;;;;;;;159.98;60.50;;;-1.50;99.90;;;;;;5056248;28;20028;-76
2022/01/25 03:50:46;;;;;;;172.27;57.95;;;-1.40;99.90;;;;;;5035986;28;20035;-76
2022/01/25 03:53:13;;;;;;;173.27;61.90;;;-1.40;99.90;;;;;;5045086;28;20031;-75
2022/01/25 03:55:39;;;;;;;200.90;61.63;;;-1.40;99.90;;;;;;5056089;28;20025;-75
2022/01/25 03:58:05;;;;;;;178.73;67.38;;;-1.40;99.90;;;;;;5055886;28;20111;-76
2022/01/25 04:00:32;;;;;;;274.10;98.03;;;-1.40;99.90;;;;;;5054602;28;20112;-75
2022/01/25 04:03:04;;;;;;;244.07;80.38;;;-1.40;99.90;;;;;;5054665;28;20028;-76
2022/01/25 04:05:48;;;;;;;185.43;65.82;;;-1.40;99.90;;;;;;5055945;28;20459;-75
2022/01/25 04:08:14;;;;;;;159.15;58.70;;;-1.40;99.90;;;;;;5055725;28;20040;-76
2022/01/25 04:10:40;;;;;;;160.85;62.10;;;-1.40;99.90;;;;;;5051914;28;20104;-76
2022/01/25 04:13:07;;;;;;;185.32;75.28;;;-1.40;99.90;;;;;;5061017;28;20020;-76
2022/01/25 04:15:33;;;;;;;176.98;68.30;;;-1.40;99.90;;;;;;5062718;28;20025;-75
2022/01/25 04:20:54;;;;;;;134.65;51.05;;;-1.40;99.90;;;;;;5055847;28;20151;-76
2022/01/25 04:26:04;;;;;;;130.20;55.63;;;-1.40;99.90;;;;;;5035648;28;20036;-76
2022/01/25 04:28:29;;;;;;;147.65;56.88;;;-1.40;99.90;;;;;;5034326;28;20026;-76
2022/01/25 04:30:55;;;;;;;156.18;53.30;;;-1.40;99.90;;;;;;5035446;28;20384;-76
2022/01/25 04:33:25;;;;;;;136.50;50.40;;;-1.40;99.90;;;;;;5034291;28;20387;-76
2022/01/25 04:36:11;;;;;;;122.43;51.95;;;-1.40;99.90;;;;;;5035418;28;20014;-76
2022/01/25 04:49:37;;;;;;;150.20;59.75;;;-1.40;99.90;;;;;;5055531;28;20114;-76
2022/01/25 04:52:16;;;;;;;142.23;55.80;;;-1.40;99.90;;;;;;5053452;28;20021;-76
2022/01/25 04:54:57;;;;;;;113.75;50.03;;;-1.40;99.90;;;;;;5051166;28;20131;-75
2022/01/25 05:05:00;;;;;;;124.13;50.75;;;-1.40;99.90;;;;;;5055153;28;20044;-76
2022/01/25 05:09:53;;;;;;;112.30;46.92;;;-1.40;99.90;;;;;;5061612;28;20070;-75
2022/01/25 05:12:30;;;;;;;123.10;48.78;;;-1.40;99.90;;;;;;5062772;28;20021;-75
2022/01/25 05:15:00;;;;;;;121.40;50.50;;;-1.40;99.90;;;;;;5048127;28;20172;-75
2022/01/25 05:17:46;;;;;;;121.40;48.92;;;-1.50;99.90;;;;;;5054475;28;20029;-75
2022/01/25 05:22:56;;;;;;;143.30;59.70;;;-1.40;99.90;;;;;;5053493;28;20040;-75
2022/01/25 05:25:22;;;;;;;123.20;51.28;;;-1.40;99.90;;;;;;5060305;28;20025;-76
2022/01/25 05:27:47;;;;;;;133.63;53.78;;;-1.40;99.90;;;;;;5054348;28;20466;-76
2022/01/25 05:30:13;;;;;;;128.23;54.42;;;-1.40;99.90;;;;;;5053128;28;20025;-76
2022/01/25 05:32:38;;;;;;;120.95;50.80;;;-1.40;99.90;;;;;;5054146;28;20056;-76
2022/01/25 05:35:05;;;;;;;121.78;50.15;;;-1.40;99.90;;;;;;5055267;28;20435;-75
2022/01/25 05:37:40;;;;;;;108.97;48.53;;;-1.40;99.90;;;;;;5062767;28;20517;-75
2022/01/25 05:40:13;;;;;;;115.57;49.20;;;-1.40;99.90;;;;;;5059282;28;20390;-76
2022/01/25 05:45:37;;;;;;;118.60;49.55;;;-1.40;99.90;;;;;;5054310;28;20024;-75
2022/01/25 05:48:02;;;;;;;114.50;50.75;;;-1.40;99.90;;;;;;5053171;28;20124;-75
2022/01/25 05:50:28;;;;;;;141.90;58.58;;;-1.30;99.90;;;;;;5048848;28;20040;-75
2022/01/25 05:52:53;;;;;;;154.90;63.30;;;-1.30;99.90;;;;;;5058476;28;20054;-75
2022/01/25 05:55:19;;;;;;;125.57;55.53;;;-1.30;99.90;;;;;;5053738;28;20451;-75
2022/01/25 05:57:45;;;;;;;158.48;60.92;;;-1.40;99.90;;;;;;5053416;28;20079;-76
2022/01/25 06:00:11;;;;;;;170.27;66.97;;;-1.40;99.90;;;;;;5052362;28;20425;-75
2022/01/25 06:02:36;;;;;;;137.52;63.25;;;-1.40;99.90;;;;;;5070103;28;20532;-75
2022/01/25 06:05:04;;;;;;;139.85;55.95;;;-1.30;99.90;;;;;;5068540;28;20025;-75
2022/01/25 06:07:30;;;;;;;154.02;65.80;;;-1.30;99.90;;;;;;5049001;28;20100;-76
2022/01/25 06:09:55;;;;;;;136.45;57.60;;;-1.30;99.90;;;;;;5041610;28;20121;-75
2022/01/25 06:12:21;;;;;;;132.57;56.45;;;-1.30;99.90;;;;;;5047216;28;20029;-75
2022/01/25 06:14:46;;;;;;;124.53;54.85;;;-1.30;99.90;;;;;;5044794;28;20029;-75
2022/01/25 06:17:12;;;;;;;127.60;57.65;;;-1.30;99.90;;;;;;5054640;28;20074;-75
2022/01/25 06:19:37;;;;;;;242.98;88.30;;;-1.30;99.90;;;;;;5052655;28;20520;-75
2022/01/25 06:22:03;;;;;;;159.30;60.92;;;-1.30;99.90;;;;;;5040317;28;20152;-76
2022/01/25 06:24:29;;;;;;;151.43;59.35;;;-1.30;99.90;;;;;;5049296;28;20449;-75
2022/01/25 06:26:56;;;;;;;137.90;57.75;;;-1.30;99.90;;;;;;5047145;28;20040;-75
2022/01/25 06:29:21;;;;;;;146.73;58.58;;;-1.30;99.90;;;;;;5046176;28;20017;-76
2022/01/25 06:31:47;;;;;;;151.43;62.63;;;-1.30;99.90;;;;;;5045406;28;20482;-76
2022/01/25 06:34:15;;;;;;;153.90;66.25;;;-1.20;99.90;;;;;;5045047;28;20044;-75
2022/01/25 06:36:41;;;;;;;204.50;80.25;;;-1.20;99.90;;;;;;5040921;28;20032;-76
2022/01/25 06:39:07;;;;;;;183.32;69.25;;;-1.30;99.90;;;;;;5041335;28;21561;-75
2022/01/25 06:41:34;;;;;;;157.40;68.72;;;-1.30;99.90;;;;;;5045093;28;20037;-75
2022/01/25 06:43:59;;;;;;;138.10;62.28;;;-1.30;99.90;;;;;;5057575;28;20040;-76
2022/01/25 06:46:25;;;;;;;163.07;71.38;;;-1.30;99.90;;;;;;5045100;28;20474;-75
2022/01/25 06:48:51;;;;;;;155.60;63.25;;;-1.30;99.90;;;;;;5047349;28;20127;-75
2022/01/25 06:51:16;;;;;;;276.33;94.57;;;-1.30;99.90;;;;;;5043953;28;20475;-75
2022/01/25 06:53:42;;;;;;;358.05;124.50;;;-1.30;99.90;;;;;;5047554;28;20021;-76
2022/01/25 06:56:08;;;;;;;215.82;88.97;;;-1.20;99.90;;;;;;5039831;28;20492;-75
2022/01/25 06:58:34;;;;;;;460.85;139.73;;;-1.20;99.90;;;;;;5045038;28;20131;-75
2022/01/25 07:00:59;;;;;;;271.48;90.15;;;-1.20;99.90;;;;;;5045261;28;20029;-76
2022/01/25 07:03:25;;;;;;;147.57;58.63;;;-1.10;99.90;;;;;;5041146;28;20029;-76
2022/01/25 07:05:51;;;;;;;126.85;57.05;;;-1.10;99.90;;;;;;5039540;28;20112;-75
2022/01/25 07:08:16;;;;;;;148.57;60.78;;;-1.10;99.90;;;;;;5044840;28;20601;-75
2022/01/25 07:10:43;;;;;;;145.05;61.53;;;-1.10;99.90;;;;;;5047127;28;20491;-75
2022/01/25 07:13:09;;;;;;;158.43;71.15;;;-1.10;99.90;;;;;;5046226;28;20083;-75
2022/01/25 07:15:35;;;;;;;170.63;66.85;;;-1.00;99.90;;;;;;5040406;28;20699;-75
2022/01/25 07:18:00;;;;;;;155.25;61.45;;;-1.10;99.90;;;;;;5046484;28;20033;-75
2022/01/25 07:20:26;;;;;;;167.93;63.38;;;-1.00;99.90;;;;;;5045309;28;20044;-76
2022/01/25 07:22:52;;;;;;;143.35;59.58;;;-1.00;99.90;;;;;;5046650;28;20070;-75
2022/01/25 07:25:18;;;;;;;477.63;139.27;;;-1.00;99.90;;;;;;5044068;28;20482;-75
2022/01/25 07:27:44;;;;;;;180.05;72.55;;;-1.00;99.90;;;;;;5042893;28;20083;-75
2022/01/25 07:30:11;;;;;;;157.65;62.85;;;-1.00;99.90;;;;;;5048095;28;20025;-76
2022/01/25 07:32:37;;;;;;;154.60;67.95;;;-1.00;99.90;;;;;;5046951;28;20029;-76
2022/01/25 07:35:04;;;;;;;142.77;60.83;;;-1.00;99.90;;;;;;5044630;28;20040;-75
2022/01/25 07:37:30;;;;;;;176.30;71.78;;;-0.90;99.90;;;;;;5042640;28;20048;-75
2022/01/25 07:39:56;;;;;;;180.93;73.38;;;-0.90;99.90;;;;;;5044036;28;20332;-75
2022/01/25 07:42:22;;;;;;;343.48;128.15;;;-0.90;99.90;;;;;;5045155;28;20074;-75
2022/01/25 07:44:48;;;;;;;886.45;394.15;;;-0.80;99.90;;;;;;5047631;28;20029;-75
2022/01/25 07:47:14;;;;;;;1505.90;625.13;;;-0.90;99.90;;;;;;5041479;28;20428;-76
2022/01/25 07:49:39;;;;;;;810.53;362.85;;;-0.80;99.90;;;;;;5045294;28;20017;-76
2022/01/25 07:52:05;;;;;;;391.92;137.18;;;-0.80;99.90;;;;;;5043755;28;20038;-77
2022/01/25 07:54:31;;;;;;;321.92;107.13;;;-0.80;99.90;;;;;;5044292;28;20017;-78
2022/01/25 07:56:57;;;;;;;181.45;64.97;;;-0.80;99.90;;;;;;5044175;28;20029;-77
2022/01/25 07:59:23;;;;;;;160.90;68.25;;;-0.70;99.90;;;;;;5044110;28;20036;-76
2022/01/25 08:01:50;;;;;;;274.90;110.70;;;-0.70;99.90;;;;;;5040128;28;20116;-77
2022/01/25 08:04:16;;;;;;;154.13;61.83;;;-0.70;99.90;;;;;;5042490;28;20159;-77
2022/01/25 08:06:41;;;;;;;190.63;71.00;;;-0.70;99.90;;;;;;5046578;28;20116;-75
2022/01/25 08:09:09;;;;;;;160.43;65.50;;;-0.60;99.90;;;;;;5041689;28;20064;-76
2022/01/25 08:11:34;;;;;;;184.27;74.15;;;-0.60;99.90;;;;;;5040405;28;20571;-75
2022/01/25 08:14:12;;;;;;;211.27;90.20;;;-0.50;99.90;;;;;;5052641;28;20163;-76
2022/01/25 08:16:43;;;;;;;151.77;65.03;;;-0.50;99.90;;;;;;5049017;28;20029;-75
2022/01/25 08:19:09;;;;;;;224.88;95.50;;;-0.50;99.90;;;;;;5048249;28;20037;-75
2022/01/25 08:21:40;;;;;;;246.38;97.53;;;-0.50;99.90;;;;;;5047376;28;20032;-75
2022/01/25 08:24:06;;;;;;;386.33;179.60;;;-0.50;99.90;;;;;;5040366;28;20025;-75
2022/01/25 08:26:32;;;;;;;308.08;139.05;;;-0.50;99.90;;;;;;5048222;28;20470;-75
2022/01/25 08:28:57;;;;;;;275.10;115.43;;;-0.40;99.90;;;;;;5050872;28;20103;-76
2022/01/25 08:31:23;;;;;;;257.45;115.75;;;-0.40;99.90;;;;;;5054009;28;20024;-76
2022/01/25 08:33:49;;;;;;;237.85;108.90;;;-0.30;99.90;;;;;;5055417;28;20048;-75
2022/01/25 08:36:14;;;;;;;185.70;84.90;;;-0.30;99.90;;;;;;5055395;28;20028;-75
2022/01/25 08:38:40;;;;;;;172.60;74.35;;;-0.30;99.90;;;;;;5052766;28;20107;-75
2022/01/25 08:41:06;;;;;;;160.40;69.65;;;-0.20;99.90;;;;;;5052738;28;20121;-75
2022/01/25 08:43:33;;;;;;;159.43;70.55;;;-0.20;99.90;;;;;;5055107;28;20017;-75
2022/01/25 08:45:59;;;;;;;205.93;89.32;;;-0.20;99.90;;;;;;5054235;28;20056;-75
2022/01/25 08:48:25;;;;;;;177.82;77.82;;;-0.20;99.90;;;;;;5053375;28;20506;-76
2022/01/25 08:50:51;;;;;;;217.30;101.20;;;-0.10;99.90;;;;;;5053433;28;20108;-75
2022/01/25 08:53:17;;;;;;;222.98;92.85;;;-0.10;99.90;;;;;;5053164;28;20098;-76
2022/01/25 08:55:43;;;;;;;261.88;110.43;;;-0.10;99.90;;;;;;5051709;28;20029;-76
2022/01/25 08:58:08;;;;;;;263.73;117.63;;;-0.10;99.90;;;;;;5052740;28;20028;-75
2022/01/25 09:00:34;;;;;;;209.30;98.78;;;-0.10;99.90;;;;;;5052704;28;20025;-75
2022/01/25 09:03:02;;;;;;;180.07;89.45;;;0.00;99.90;;;;;;5054150;28;20029;-75
2022/01/25 09:05:29;;;;;;;189.98;88.75;;;0.10;99.90;;;;;;5054740;28;20017;-75
2022/01/25 09:07:57;;;;;;;160.13;77.93;;;0.00;99.90;;;;;;5054073;28;20043;-75
2022/01/25 09:10:25;;;;;;;179.60;80.63;;;0.10;99.90;;;;;;5054949;28;20021;-75
2022/01/25 09:12:51;;;;;;;152.82;71.75;;;0.10;99.90;;;;;;5053309;28;20029;-75
2022/01/25 09:15:17;;;;;;;164.75;79.43;;;0.20;99.90;;;;;;5054707;28;20607;-75
2022/01/25 09:17:42;;;;;;;110.13;51.55;;;0.20;99.90;;;;;;5054577;28;20025;-75
2022/01/25 09:20:09;;;;;;;121.63;58.42;;;0.20;99.90;;;;;;5050164;28;20494;-75
2022/01/25 09:22:34;;;;;;;108.00;49.97;;;0.20;99.90;;;;;;5053966;28;20589;-75
2022/01/25 09:25:00;;;;;;;116.70;55.17;;;0.30;99.90;;;;;;5053716;28;20104;-75
2022/01/25 09:27:25;;;;;;;116.45;56.92;;;0.30;99.90;;;;;;5054641;28;20028;-75
2022/01/25 09:29:51;;;;;;;109.13;53.38;;;0.30;99.90;;;;;;5054259;28;20028;-75
2022/01/25 09:32:19;;;;;;;134.18;57.63;;;0.40;99.90;;;;;;5054316;28;20099;-75
2022/01/25 09:34:45;;;;;;;92.97;42.22;;;0.50;99.90;;;;;;5054274;28;20107;-75
2022/01/25 09:37:10;;;;;;;108.78;49.60;;;0.50;99.90;;;;;;5051468;28;20493;-75
2022/01/25 09:39:36;;;;;;;204.40;85.13;;;0.40;99.90;;;;;;5053880;28;20037;-75
2022/01/25 09:42:04;;;;;;;100.30;45.65;;;0.50;99.90;;;;;;5047753;28;20029;-75
2022/01/25 09:44:29;;;;;;;95.18;41.42;;;0.50;99.90;;;;;;5052814;28;20390;-76
2022/01/25 09:46:56;;;;;;;89.72;39.80;;;0.50;99.90;;;;;;5053911;28;20029;-75
2022/01/25 09:49:22;;;;;;;84.32;40.92;;;0.60;99.90;;;;;;5054095;28;20035;-76
2022/01/25 09:51:49;;;;;;;91.93;46.97;;;0.60;99.90;;;;;;5053914;28;20036;-75
2022/01/25 09:54:15;;;;;;;165.00;87.32;;;0.60;99.90;;;;;;5052705;28;20021;-75
2022/01/25 09:56:41;;;;;;;101.00;45.00;;;0.60;99.90;;;;;;5053630;28;20464;-76
2022/01/25 09:59:07;;;;;;;90.97;43.90;;;0.60;99.90;;;;;;5053644;28;20037;-76
2022/01/25 10:01:32;;;;;;;91.15;41.50;;;0.70;99.90;;;;;;5053825;28;20044;-74
2022/01/25 10:04:00;;;;;;;78.15;37.55;;;0.70;99.90;;;;;;5041453;28;20167;-74
2022/01/25 10:06:32;;;;;;;86.47;37.58;;;0.70;99.90;;;;;;5032562;28;20037;-73
2022/01/25 10:08:58;;;;;;;79.55;41.20;;;0.70;99.90;;;;;;5035838;28;20459;-73
2022/01/25 10:11:25;;;;;;;90.00;43.92;;;0.70;99.90;;;;;;5042778;28;20022;-74
2022/01/25 10:13:56;;;;;;;89.68;43.13;;;0.60;99.90;;;;;;5047795;28;20017;-73
2022/01/25 10:16:32;;;;;;;79.15;36.63;;;0.60;99.90;;;;;;5043777;28;20024;-73
2022/01/25 10:19:04;;;;;;;82.90;38.75;;;0.60;99.90;;;;;;5053278;28;20032;-74
2022/01/25 10:21:36;;;;;;;77.88;38.53;;;0.70;99.90;;;;;;5052446;28;20025;-73
2022/01/25 10:24:03;;;;;;;72.65;37.03;;;0.80;99.90;;;;;;5046063;28;20406;-73
2022/01/25 10:27:02;;;;;;;75.22;41.13;;;0.80;99.90;;;;;;5051225;28;20021;-74
2022/01/25 10:29:34;;;;;;;75.05;33.80;;;0.90;99.90;;;;;;5035906;28;20047;-74
2022/01/25 10:32:10;;;;;;;71.53;33.78;;;0.80;99.90;;;;;;5045911;28;20120;-73
2022/01/25 10:34:41;;;;;;;75.00;35.00;;;0.80;99.90;;;;;;5048608;28;20029;-72
2022/01/25 10:37:09;;;;;;;72.72;33.75;;;0.80;99.90;;;;;;5040797;28;20044;-73
2022/01/25 10:39:38;;;;;;;91.50;42.20;;;0.90;99.90;;;;;;5037856;28;20513;-76
2022/01/25 10:42:08;;;;;;;73.50;35.30;;;0.80;99.90;;;;;;5035659;28;20038;-78
2022/01/25 10:44:45;;;;;;;83.47;40.08;;;0.80;99.90;;;;;;5031758;28;20028;-74
2022/01/25 10:47:11;;;;;;;88.45;36.60;;;0.80;99.90;;;;;;5039618;28;20116;-74
2022/01/25 10:49:48;;;;;;;73.15;34.30;;;0.80;99.90;;;;;;5049850;28;20163;-73
2022/01/25 10:52:27;;;;;;;76.20;34.42;;;0.80;99.90;;;;;;5048678;28;20044;-73
2022/01/25 10:54:53;;;;;;;78.88;37.70;;;0.80;99.90;;;;;;5051295;28;20017;-74
2022/01/25 10:57:23;;;;;;;64.65;30.55;;;0.90;99.90;;;;;;5051421;28;20040;-74
2022/01/25 11:00:06;;;;;;;69.00;31.85;;;0.90;99.90;;;;;;5050990;28;20123;-74
2022/01/25 11:02:33;;;;;;;69.57;33.67;;;0.90;99.90;;;;;;5049879;28;20037;-74
2022/01/25 11:05:07;;;;;;;71.47;33.45;;;1.00;99.90;;;;;;5045638;28;20032;-75
2022/01/25 11:07:44;;;;;;;74.95;34.22;;;1.10;99.90;;;;;;5051361;28;20549;-74
2022/01/25 11:10:16;;;;;;;63.80;30.60;;;1.10;99.90;;;;;;5049949;28;20021;-74
2022/01/25 11:12:48;;;;;;;69.22;31.52;;;1.10;99.90;;;;;;5051580;28;20351;-72
2022/01/25 11:15:14;;;;;;;69.88;32.15;;;1.20;99.90;;;;;;5049673;28;20024;-72
2022/01/25 11:17:40;;;;;;;65.30;31.20;;;1.30;99.90;;;;;;5050070;28;20041;-72
2022/01/25 11:20:07;;;;;;;62.97;29.75;;;1.30;99.90;;;;;;5046356;28;20112;-72
2022/01/25 11:22:34;;;;;;;57.22;26.35;;;1.30;99.90;;;;;;5050016;28;20037;-72
2022/01/25 11:25:06;;;;;;;59.95;27.63;;;1.30;99.90;;;;;;5049427;28;20509;-74
2022/01/25 11:27:32;;;;;;;52.22;25.30;;;1.30;99.90;;;;;;5048544;28;20067;-72
2022/01/25 11:30:04;;;;;;;64.63;25.45;;;1.30;99.90;;;;;;5048302;28;20097;-71
2022/01/25 11:32:34;;;;;;;59.60;29.15;;;1.20;99.90;;;;;;5049224;28;20040;-73
2022/01/25 11:35:00;;;;;;;62.67;30.50;;;1.30;99.90;;;;;;5048684;28;20021;-73
2022/01/25 11:37:47;;;;;;;62.13;29.13;;;1.30;99.90;;;;;;5040191;28;20393;-73
2022/01/25 11:40:31;;;;;;;63.08;28.88;;;1.30;99.90;;;;;;5051697;28;20059;-72
2022/01/25 11:43:03;;;;;;;65.20;30.02;;;1.20;99.90;;;;;;5033470;28;20461;-73
2022/01/25 11:45:38;;;;;;;48.40;23.35;;;1.20;99.90;;;;;;5045618;28;20025;-72
2022/01/25 11:48:04;;;;;;;53.88;27.73;;;1.20;99.90;;;;;;5054897;28;20091;-73
2022/01/25 11:50:34;;;;;;;113.57;58.72;;;1.20;99.90;;;;;;5051498;28;20053;-73
2022/01/25 11:53:07;;;;;;;210.77;90.82;;;1.20;99.90;;;;;;5045895;28;20037;-73
2022/01/25 11:55:46;;;;;;;241.20;104.45;;;1.30;99.90;;;;;;5052539;28;20029;-73
2022/01/25 11:58:32;;;;;;;373.95;154.90;;;1.30;99.90;;;;;;5054128;28;20052;-72
2022/01/25 12:01:03;;;;;;;226.68;101.97;;;1.30;99.90;;;;;;5055234;28;20175;-73
2022/01/25 12:03:30;;;;;;;107.03;52.95;;;1.30;99.90;;;;;;5036998;28;20040;-72
2022/01/25 12:06:08;;;;;;;124.60;58.83;;;1.30;99.90;;;;;;5034856;28;20226;-73
2022/01/25 12:11:48;;;;;;;135.25;54.33;;;1.20;99.90;;;;;;5035416;28;20180;-73
2022/01/25 12:14:32;;;;;;;135.82;59.50;;;1.20;99.90;;;;;;5034355;28;20026;-72
2022/01/25 12:17:04;;;;;;;143.50;59.30;;;1.20;99.90;;;;;;5035011;28;20037;-72
2022/01/25 12:19:50;;;;;;;193.32;79.93;;;1.20;99.90;;;;;;5035001;28;20061;-73
2022/01/25 12:22:34;;;;;;;104.07;42.25;;;1.30;99.90;;;;;;5034236;28;20033;-72
2022/01/25 12:25:15;;;;;;;145.93;43.78;;;1.30;99.90;;;;;;5034502;28;20497;-73
2022/01/25 12:27:54;;;;;;;73.10;25.23;;;1.20;99.90;;;;;;5051703;28;20501;-72
2022/01/25 12:30:32;;;;;;;70.57;31.33;;;1.30;99.90;;;;;;5051897;28;20428;-72
2022/01/25 12:33:03;;;;;;;71.10;37.05;;;1.30;99.90;;;;;;5034678;28;20447;-72
2022/01/25 12:35:52;;;;;;;77.80;35.22;;;1.30;99.90;;;;;;5054225;28;20032;-72
2022/01/25 12:38:25;;;;;;;64.68;24.00;;;1.20;99.90;;;;;;5055471;28;20036;-72
2022/01/25 12:41:21;;;;;;;62.13;22.08;;;1.20;99.90;;;;;;5054479;28;20375;-73
2022/01/25 12:43:53;;;;;;;44.08;19.38;;;1.20;99.90;;;;;;5035094;28;20032;-73
2022/01/25 12:46:31;;;;;;;32.75;16.25;;;1.10;99.90;;;;;;5033729;28;20074;-73
2022/01/25 12:49:11;;;;;;;55.15;23.42;;;1.00;99.90;;;;;;5033937;28;20386;-77
2022/01/25 12:51:39;;;;;;;36.95;18.10;;;1.00;99.90;;;;;;5052388;28;20040;-73
2022/01/25 12:54:10;;;;;;;46.90;22.35;;;0.90;99.90;;;;;;5053582;28;20028;-73
2022/01/25 12:56:42;;;;;;;60.13;20.83;;;0.90;99.90;;;;;;5054874;28;20028;-73
2022/01/25 12:59:12;;;;;;;60.95;21.00;;;0.80;99.90;;;;;;5053854;28;20037;-73
2022/01/25 13:01:40;;;;;;;27.33;14.27;;;0.70;99.90;;;;;;5052862;28;20021;-73
2022/01/25 13:04:08;;;;;;;28.17;13.15;;;0.70;99.90;;;;;;5050796;28;20466;-73
2022/01/25 13:06:46;;;;;;;29.67;16.65;;;0.70;99.90;;;;;;5048735;28;20080;-73
2022/01/25 13:09:19;;;;;;;47.30;23.38;;;0.70;99.90;;;;;;5053450;28;20033;-73
2022/01/25 13:17:16;;;;;;;48.50;22.00;;;0.80;99.90;;;;;;5055011;28;20549;-73
2022/01/25 13:19:48;;;;;;;43.22;19.20;;;0.70;99.90;;;;;;5043949;28;20045;-73
2022/01/25 13:22:21;;;;;;;26.80;15.30;;;0.80;99.90;;;;;;5044522;28;20558;-74
2022/01/25 13:25:13;;;;;;;27.92;14.52;;;0.80;99.90;;;;;;5043724;28;20070;-73
2022/01/25 13:27:52;;;;;;;27.52;14.98;;;0.90;99.90;;;;;;5044762;28;20466;-73
2022/01/25 13:33:12;;;;;;;22.98;11.77;;;1.00;99.90;;;;;;5044066;28;20079;-74
2022/01/25 13:35:43;;;;;;;38.50;16.77;;;1.00;99.90;;;;;;5043926;28;20025;-73
2022/01/25 13:38:20;;;;;;;61.03;25.02;;;1.10;99.90;;;;;;5062486;28;20283;-73
2022/01/25 13:46:25;;;;;;;42.30;22.05;;;1.10;99.90;;;;;;5047792;28;20033;-73
2022/01/25 13:48:54;;;;;;;39.08;21.15;;;1.10;99.90;;;;;;5047636;28;20027;-74
2022/01/25 13:51:22;;;;;;;81.80;34.72;;;1.00;99.90;;;;;;5044735;28;20540;-73
2022/01/25 13:53:54;;;;;;;200.75;80.55;;;1.00;99.90;;;;;;5041686;28;20069;-73
2022/01/25 13:56:22;;;;;;;97.45;38.78;;;1.00;99.90;;;;;;5043337;28;20025;-73
2022/01/25 13:58:50;;;;;;;48.65;20.83;;;1.00;99.90;;;;;;5043097;28;20494;-73
2022/01/25 14:01:18;;;;;;;208.80;64.60;;;0.90;99.90;;;;;;5043479;28;20025;-73
2022/01/25 14:03:53;;;;;;;135.00;50.08;;;0.90;99.90;;;;;;5045512;28;20025;-73
2022/01/25 14:06:29;;;;;;;144.40;55.65;;;1.00;99.90;;;;;;5046568;28;20018;-72
2022/01/25 14:09:05;;;;;;;232.10;84.95;;;0.90;99.90;;;;;;5043959;28;20037;-73
2022/01/25 14:25:32;;;;;;;64.90;32.45;;;0.70;99.90;;;;;;5043285;28;20037;-73
2022/01/25 14:27:59;;;;;;;61.60;28.83;;;0.70;99.90;;;;;;5045845;28;20381;-72
2022/01/25 14:30:29;;;;;;;52.45;24.52;;;0.70;99.90;;;;;;5044717;28;20056;-72
2022/01/25 14:33:03;;;;;;;53.97;24.25;;;0.70;99.90;;;;;;5046402;28;20100;-73
2022/01/25 14:35:30;;;;;;;43.85;20.67;;;0.80;99.90;;;;;;5045372;28;20032;-73
2022/01/25 14:37:57;;;;;;;43.03;21.17;;;0.70;99.90;;;;;;5044305;28;20100;-72
2022/01/25 14:40:22;;;;;;;30.23;17.52;;;0.70;99.90;;;;;;5044792;28;20037;-73
2022/01/25 14:42:48;;;;;;;54.20;24.65;;;0.70;99.90;;;;;;5046755;28;20086;-73
2022/01/25 14:45:20;;;;;;;47.35;21.92;;;0.70;99.90;;;;;;5044794;28;20036;-73